sensor_id;sensor_type;location;lat;lon;timestamp;pressure;altitude;pressure_sealevel;temperature;humidity
78835;BME280;68187;42.682;23.352;2024-03-22T00:02:18;95227.09;;;6.92;47.73
78835;BME280;68187;42.682;23.352;2024-03-22T00:04:44;95223.41;;;6.93;47.96
78835;BME280;68187;42.682;23.352;2024-03-22T00:07:11;95223.91;;;6.90;47.64
78835;BME280;68187;42.682;23.352;2024-03-22T00:09:37;95225.75;;;6.89;47.93
78835;BME280;68187;42.682;23.352;2024-03-22T00:12:04;95227.09;;;6.75;48.55
78835;BME280;68187;42.682;23.352;2024-03-22T00:14:30;95230.03;;;6.79;48.41
78835;BME280;68187;42.682;23.352;2024-03-22T00:16:58;95226.13;;;6.65;48.81
78835;BME280;68187;42.682;23.352;2024-03-22T00:19:24;95221.25;;;6.57;48.76
78835;BME280;68187;42.682;23.352;2024-03-22T00:21:51;95223.88;;;6.57;48.90
78835;BME280;68187;42.682;23.352;2024-03-22T00:24:17;95224.75;;;6.45;48.94
78835;BME280;68187;42.682;23.352;2024-03-22T00:26:44;95226.81;;;6.43;49.00
78835;BME280;68187;42.682;23.352;2024-03-22T00:29:10;95228.06;;;6.41;49.55
78835;BME280;68187;42.682;23.352;2024-03-22T00:31:36;95224.06;;;6.22;50.60
78835;BME280;68187;42.682;23.352;2024-03-22T00:34:04;95227.50;;;6.22;50.32
78835;BME280;68187;42.682;23.352;2024-03-22T00:36:31;95226.16;;;6.20;50.14
78835;BME280;68187;42.682;23.352;2024-03-22T00:38:56;95230.81;;;6.18;49.98
78835;BME280;68187;42.682;23.352;2024-03-22T00:41:23;95226.91;;;6.20;50.70
78835;BME280;68187;42.682;23.352;2024-03-22T00:43:49;95234.00;;;6.20;50.59
78835;BME280;68187;42.682;23.352;2024-03-22T00:46:16;95231.16;;;6.21;50.33
78835;BME280;68187;42.682;23.352;2024-03-22T00:48:42;95231.78;;;6.00;50.99
78835;BME280;68187;42.682;23.352;2024-03-22T00:51:10;95223.25;;;5.93;50.69
78835;BME280;68187;42.682;23.352;2024-03-22T00:53:36;95223.59;;;5.97;50.63
78835;BME280;68187;42.682;23.352;2024-03-22T00:56:04;95218.03;;;5.82;51.71
78835;BME280;68187;42.682;23.352;2024-03-22T00:58:30;95222.84;;;5.85;51.09
78835;BME280;68187;42.682;23.352;2024-03-22T01:00:57;95222.41;;;5.64;52.17
78835;BME280;68187;42.682;23.352;2024-03-22T01:03:22;95220.25;;;5.61;51.85
78835;BME280;68187;42.682;23.352;2024-03-22T01:05:49;95221.31;;;5.49;51.34
78835;BME280;68187;42.682;23.352;2024-03-22T01:08:17;95223.38;;;5.35;52.48
78835;BME280;68187;42.682;23.352;2024-03-22T01:10:44;95222.44;;;5.41;52.03
78835;BME280;68187;42.682;23.352;2024-03-22T01:13:10;95231.31;;;5.52;52.10
78835;BME280;68187;42.682;23.352;2024-03-22T01:15:36;95227.34;;;5.49;52.65
78835;BME280;68187;42.682;23.352;2024-03-22T01:18:03;95223.00;;;5.43;52.79
78835;BME280;68187;42.682;23.352;2024-03-22T01:20:30;95229.28;;;5.42;53.57
78835;BME280;68187;42.682;23.352;2024-03-22T01:22:55;95228.81;;;5.45;53.18
78835;BME280;68187;42.682;23.352;2024-03-22T01:25:24;95229.84;;;5.56;52.22
78835;BME280;68187;42.682;23.352;2024-03-22T01:27:50;95232.66;;;5.54;51.87
78835;BME280;68187;42.682;23.352;2024-03-22T01:30:17;95235.41;;;5.36;53.28
78835;BME280;68187;42.682;23.352;2024-03-22T01:32:43;95231.91;;;5.42;52.94
78835;BME280;68187;42.682;23.352;2024-03-22T01:35:09;95225.63;;;5.32;53.80
78835;BME280;68187;42.682;23.352;2024-03-22T01:37:35;95218.13;;;5.35;53.88
78835;BME280;68187;42.682;23.352;2024-03-22T01:40:03;95224.03;;;5.42;53.58
78835;BME280;68187;42.682;23.352;2024-03-22T01:42:31;95217.31;;;5.35;53.14
78835;BME280;68187;42.682;23.352;2024-03-22T01:44:58;95227.00;;;5.34;53.27
78835;BME280;68187;42.682;23.352;2024-03-22T01:47:24;95226.69;;;5.31;53.39
78835;BME280;68187;42.682;23.352;2024-03-22T01:49:53;95221.56;;;5.24;53.31
78835;BME280;68187;42.682;23.352;2024-03-22T01:52:20;95226.44;;;5.21;53.15
78835;BME280;68187;42.682;23.352;2024-03-22T01:54:47;95219.84;;;5.18;53.19
78835;BME280;68187;42.682;23.352;2024-03-22T01:57:14;95232.25;;;5.23;53.44
78835;BME280;68187;42.682;23.352;2024-03-22T01:59:43;95234.41;;;5.14;54.01
78835;BME280;68187;42.682;23.352;2024-03-22T02:02:09;95232.84;;;5.13;54.11
78835;BME280;68187;42.682;23.352;2024-03-22T02:04:36;95230.66;;;5.10;54.76
78835;BME280;68187;42.682;23.352;2024-03-22T02:07:02;95232.25;;;5.23;54.16
78835;BME280;68187;42.682;23.352;2024-03-22T02:09:29;95232.16;;;5.29;53.72
78835;BME280;68187;42.682;23.352;2024-03-22T02:11:55;95220.88;;;5.17;54.04
78835;BME280;68187;42.682;23.352;2024-03-22T02:14:22;95228.28;;;5.09;54.36
78835;BME280;68187;42.682;23.352;2024-03-22T02:16:49;95224.06;;;5.07;54.16
78835;BME280;68187;42.682;23.352;2024-03-22T02:19:16;95223.50;;;5.05;54.80
78835;BME280;68187;42.682;23.352;2024-03-22T02:21:42;95232.47;;;4.98;55.02
78835;BME280;68187;42.682;23.352;2024-03-22T02:24:10;95234.50;;;4.84;55.95
78835;BME280;68187;42.682;23.352;2024-03-22T02:26:37;95236.69;;;4.99;55.70
78835;BME280;68187;42.682;23.352;2024-03-22T02:29:04;95231.59;;;5.04;55.37
78835;BME280;68187;42.682;23.352;2024-03-22T02:31:30;95233.03;;;5.12;55.48
78835;BME280;68187;42.682;23.352;2024-03-22T02:33:58;95238.97;;;5.19;55.37
78835;BME280;68187;42.682;23.352;2024-03-22T02:36:24;95239.78;;;5.19;55.49
78835;BME280;68187;42.682;23.352;2024-03-22T02:38:50;95244.19;;;5.19;55.28
78835;BME280;68187;42.682;23.352;2024-03-22T02:41:18;95246.94;;;5.12;55.35
78835;BME280;68187;42.682;23.352;2024-03-22T02:43:45;95248.88;;;5.05;55.78
78835;BME280;68187;42.682;23.352;2024-03-22T02:46:10;95246.69;;;5.02;55.69
78835;BME280;68187;42.682;23.352;2024-03-22T02:48:37;95251.16;;;5.01;55.32
78835;BME280;68187;42.682;23.352;2024-03-22T02:51:04;95253.50;;;4.80;55.92
78835;BME280;68187;42.682;23.352;2024-03-22T02:53:31;95263.06;;;4.74;55.93
78835;BME280;68187;42.682;23.352;2024-03-22T02:55:59;95259.41;;;4.75;55.90
78835;BME280;68187;42.682;23.352;2024-03-22T02:58:27;95264.53;;;4.82;55.96
78835;BME280;68187;42.682;23.352;2024-03-22T03:00:53;95265.78;;;4.79;55.74
78835;BME280;68187;42.682;23.352;2024-03-22T03:03:20;95268.41;;;4.79;55.88
78835;BME280;68187;42.682;23.352;2024-03-22T03:05:46;95271.00;;;4.79;55.83
78835;BME280;68187;42.682;23.352;2024-03-22T03:08:13;95277.06;;;4.80;56.37
78835;BME280;68187;42.682;23.352;2024-03-22T03:10:39;95280.69;;;4.67;56.32
78835;BME280;68187;42.682;23.352;2024-03-22T03:13:05;95284.09;;;4.68;56.55
78835;BME280;68187;42.682;23.352;2024-03-22T03:15:33;95281.91;;;4.65;57.04
78835;BME280;68187;42.682;23.352;2024-03-22T03:18:00;95279.75;;;4.62;57.02
78835;BME280;68187;42.682;23.352;2024-03-22T03:20:25;95290.56;;;4.65;56.83
78835;BME280;68187;42.682;23.352;2024-03-22T03:22:52;95280.81;;;4.72;56.26
78835;BME280;68187;42.682;23.352;2024-03-22T03:25:18;95287.97;;;4.65;55.68
78835;BME280;68187;42.682;23.352;2024-03-22T03:27:45;95291.34;;;4.66;55.68
78835;BME280;68187;42.682;23.352;2024-03-22T03:30:11;95288.16;;;4.64;54.94
78835;BME280;68187;42.682;23.352;2024-03-22T03:32:40;95289.41;;;4.61;54.90
78835;BME280;68187;42.682;23.352;2024-03-22T03:35:06;95291.91;;;4.56;54.90
78835;BME280;68187;42.682;23.352;2024-03-22T03:37:33;95287.81;;;4.60;54.68
78835;BME280;68187;42.682;23.352;2024-03-22T03:39:58;95287.56;;;4.50;55.55
78835;BME280;68187;42.682;23.352;2024-03-22T03:42:25;95297.13;;;4.56;56.18
78835;BME280;68187;42.682;23.352;2024-03-22T03:44:51;95294.25;;;4.46;56.51
78835;BME280;68187;42.682;23.352;2024-03-22T03:47:18;95304.28;;;4.19;56.74
78835;BME280;68187;42.682;23.352;2024-03-22T03:49:46;95310.31;;;4.20;56.27
78835;BME280;68187;42.682;23.352;2024-03-22T03:52:13;95317.09;;;4.21;56.58
78835;BME280;68187;42.682;23.352;2024-03-22T03:54:39;95312.91;;;4.20;56.49
78835;BME280;68187;42.682;23.352;2024-03-22T03:57:06;95313.78;;;4.14;56.75
78835;BME280;68187;42.682;23.352;2024-03-22T03:59:33;95313.00;;;4.13;56.66
78835;BME280;68187;42.682;23.352;2024-03-22T04:01:59;95315.81;;;4.12;56.87
78835;BME280;68187;42.682;23.352;2024-03-22T04:04:25;95315.81;;;4.12;56.75
78835;BME280;68187;42.682;23.352;2024-03-22T04:06:54;95314.81;;;4.13;56.87
78835;BME280;68187;42.682;23.352;2024-03-22T04:09:19;95311.06;;;4.20;56.01
78835;BME280;68187;42.682;23.352;2024-03-22T04:11:46;95321.56;;;4.02;56.77
78835;BME280;68187;42.682;23.352;2024-03-22T04:14:13;95312.19;;;4.13;56.38
78835;BME280;68187;42.682;23.352;2024-03-22T04:16:40;95322.19;;;4.16;55.97
78835;BME280;68187;42.682;23.352;2024-03-22T04:19:06;95316.97;;;4.16;56.71
78835;BME280;68187;42.682;23.352;2024-03-22T04:21:33;95319.00;;;4.14;57.35
78835;BME280;68187;42.682;23.352;2024-03-22T04:24:00;95322.00;;;4.17;56.70
78835;BME280;68187;42.682;23.352;2024-03-22T04:26:27;95333.81;;;4.20;57.30
78835;BME280;68187;42.682;23.352;2024-03-22T04:28:53;95335.88;;;4.18;57.51
78835;BME280;68187;42.682;23.352;2024-03-22T04:31:20;95332.13;;;4.25;57.38
78835;BME280;68187;42.682;23.352;2024-03-22T04:33:45;95341.72;;;4.31;57.36
78835;BME280;68187;42.682;23.352;2024-03-22T04:36:12;95337.16;;;4.27;57.25
78835;BME280;68187;42.682;23.352;2024-03-22T04:38:38;95345.66;;;4.22;57.04
78835;BME280;68187;42.682;23.352;2024-03-22T04:41:07;95343.31;;;4.32;56.70
78835;BME280;68187;42.682;23.352;2024-03-22T04:43:33;95340.78;;;4.26;57.23
78835;BME280;68187;42.682;23.352;2024-03-22T04:46:00;95344.69;;;4.35;56.99
78835;BME280;68187;42.682;23.352;2024-03-22T04:48:26;95348.75;;;4.31;57.85
78835;BME280;68187;42.682;23.352;2024-03-22T04:50:53;95350.50;;;4.37;57.65
78835;BME280;68187;42.682;23.352;2024-03-22T04:53:19;95345.63;;;4.41;57.37
78835;BME280;68187;42.682;23.352;2024-03-22T04:55:47;95346.53;;;4.16;58.12
78835;BME280;68187;42.682;23.352;2024-03-22T04:58:16;95353.53;;;4.34;58.32
78835;BME280;68187;42.682;23.352;2024-03-22T05:00:44;95350.41;;;4.44;58.67
78835;BME280;68187;42.682;23.352;2024-03-22T05:03:10;95350.97;;;4.46;58.80
78835;BME280;68187;42.682;23.352;2024-03-22T05:05:37;95352.53;;;4.35;59.29
78835;BME280;68187;42.682;23.352;2024-03-22T05:08:04;95362.09;;;4.41;58.90
78835;BME280;68187;42.682;23.352;2024-03-22T05:10:31;95362.63;;;4.61;58.59
78835;BME280;68187;42.682;23.352;2024-03-22T05:12:57;95351.66;;;4.71;58.51
78835;BME280;68187;42.682;23.352;2024-03-22T05:15:26;95359.50;;;4.71;58.33
78835;BME280;68187;42.682;23.352;2024-03-22T05:17:52;95363.75;;;4.83;58.04
78835;BME280;68187;42.682;23.352;2024-03-22T05:20:19;95355.72;;;4.96;57.67
78835;BME280;68187;42.682;23.352;2024-03-22T05:22:47;95358.91;;;4.98;57.46
78835;BME280;68187;42.682;23.352;2024-03-22T05:25:14;95367.34;;;5.12;57.80
78835;BME280;68187;42.682;23.352;2024-03-22T05:27:41;95370.56;;;5.26;58.29
78835;BME280;68187;42.682;23.352;2024-03-22T05:30:09;95372.41;;;5.37;57.95
78835;BME280;68187;42.682;23.352;2024-03-22T05:32:37;95373.66;;;5.46;56.98
78835;BME280;68187;42.682;23.352;2024-03-22T05:35:04;95368.88;;;5.54;56.41
78835;BME280;68187;42.682;23.352;2024-03-22T05:37:30;95369.38;;;5.63;55.06
78835;BME280;68187;42.682;23.352;2024-03-22T05:39:58;95367.63;;;5.68;54.50
78835;BME280;68187;42.682;23.352;2024-03-22T05:42:24;95373.81;;;5.74;54.06
78835;BME280;68187;42.682;23.352;2024-03-22T05:44:51;95374.94;;;5.78;54.06
78835;BME280;68187;42.682;23.352;2024-03-22T05:47:18;95384.31;;;5.97;53.74
78835;BME280;68187;42.682;23.352;2024-03-22T05:49:47;95380.06;;;6.08;53.19
78835;BME280;68187;42.682;23.352;2024-03-22T05:52:13;95378.44;;;6.18;51.94
78835;BME280;68187;42.682;23.352;2024-03-22T05:54:40;95381.88;;;6.19;52.37
78835;BME280;68187;42.682;23.352;2024-03-22T05:57:07;95385.97;;;6.26;52.13
78835;BME280;68187;42.682;23.352;2024-03-22T05:59:33;95393.59;;;6.39;51.73
78835;BME280;68187;42.682;23.352;2024-03-22T06:02:00;95379.78;;;6.32;51.20
78835;BME280;68187;42.682;23.352;2024-03-22T06:04:27;95383.63;;;6.53;51.04
78835;BME280;68187;42.682;23.352;2024-03-22T06:06:54;95386.31;;;6.70;50.37
78835;BME280;68187;42.682;23.352;2024-03-22T06:09:24;95387.41;;;6.85;50.34
78835;BME280;68187;42.682;23.352;2024-03-22T06:12:00;95389.97;;;6.97;50.09
78835;BME280;68187;42.682;23.352;2024-03-22T06:14:27;95379.41;;;7.08;49.46
78835;BME280;68187;42.682;23.352;2024-03-22T06:16:53;95379.66;;;7.24;49.36
78835;BME280;68187;42.682;23.352;2024-03-22T06:19:20;95376.22;;;7.23;48.88
78835;BME280;68187;42.682;23.352;2024-03-22T06:21:46;95384.31;;;7.33;47.60
78835;BME280;68187;42.682;23.352;2024-03-22T06:24:14;95388.69;;;7.44;48.68
78835;BME280;68187;42.682;23.352;2024-03-22T06:26:40;95380.47;;;7.57;47.60
78835;BME280;68187;42.682;23.352;2024-03-22T06:29:07;95380.94;;;7.71;47.18
78835;BME280;68187;42.682;23.352;2024-03-22T06:31:33;95385.56;;;7.80;46.96
78835;BME280;68187;42.682;23.352;2024-03-22T06:34:00;95383.41;;;7.94;46.50
78835;BME280;68187;42.682;23.352;2024-03-22T06:36:28;95386.75;;;7.89;45.36
78835;BME280;68187;42.682;23.352;2024-03-22T06:38:55;95390.00;;;7.97;45.16
78835;BME280;68187;42.682;23.352;2024-03-22T06:41:22;95384.31;;;8.05;46.55
78835;BME280;68187;42.682;23.352;2024-03-22T06:43:49;95387.72;;;8.22;46.93
78835;BME280;68187;42.682;23.352;2024-03-22T06:46:15;95389.75;;;8.15;45.72
78835;BME280;68187;42.682;23.352;2024-03-22T06:48:42;95392.03;;;8.28;45.81
78835;BME280;68187;42.682;23.352;2024-03-22T06:51:08;95400.31;;;8.36;46.12
78835;BME280;68187;42.682;23.352;2024-03-22T06:53:34;95401.28;;;8.52;46.49
78835;BME280;68187;42.682;23.352;2024-03-22T06:56:00;95403.31;;;8.67;47.62
78835;BME280;68187;42.682;23.352;2024-03-22T06:58:29;95404.00;;;8.35;45.77
78835;BME280;68187;42.682;23.352;2024-03-22T07:00:55;95413.91;;;8.28;46.32
78835;BME280;68187;42.682;23.352;2024-03-22T07:03:22;95403.19;;;8.56;46.94
78835;BME280;68187;42.682;23.352;2024-03-22T07:05:48;95403.19;;;8.78;47.15
78835;BME280;68187;42.682;23.352;2024-03-22T07:08:15;95407.41;;;8.79;46.17
78835;BME280;68187;42.682;23.352;2024-03-22T07:10:41;95405.50;;;8.96;45.50
78835;BME280;68187;42.682;23.352;2024-03-22T07:13:08;95405.31;;;9.03;45.89
78835;BME280;68187;42.682;23.352;2024-03-22T07:15:35;95405.31;;;9.29;45.24
78835;BME280;68187;42.682;23.352;2024-03-22T07:18:03;95401.22;;;9.44;43.80
78835;BME280;68187;42.682;23.352;2024-03-22T07:20:30;95406.53;;;9.49;45.38
78835;BME280;68187;42.682;23.352;2024-03-22T07:22:57;95400.91;;;9.67;44.07
78835;BME280;68187;42.682;23.352;2024-03-22T07:25:23;95408.28;;;9.65;42.62
78835;BME280;68187;42.682;23.352;2024-03-22T07:27:50;95408.28;;;9.65;42.24
78835;BME280;68187;42.682;23.352;2024-03-22T07:30:16;95408.13;;;9.81;44.59
78835;BME280;68187;42.682;23.352;2024-03-22T07:32:45;95404.19;;;9.84;42.55
78835;BME280;68187;42.682;23.352;2024-03-22T07:35:12;95406.19;;;10.03;41.83
78835;BME280;68187;42.682;23.352;2024-03-22T07:37:39;95407.56;;;10.11;42.03
78835;BME280;68187;42.682;23.352;2024-03-22T07:40:06;95404.75;;;10.23;43.12
78835;BME280;68187;42.682;23.352;2024-03-22T07:42:33;95409.84;;;10.39;42.01
78835;BME280;68187;42.682;23.352;2024-03-22T07:44:59;95409.34;;;10.42;40.97
78835;BME280;68187;42.682;23.352;2024-03-22T07:47:26;95404.78;;;10.28;40.74
78835;BME280;68187;42.682;23.352;2024-03-22T07:49:53;95407.19;;;10.34;42.50
78835;BME280;68187;42.682;23.352;2024-03-22T07:52:20;95407.03;;;10.56;41.77
78835;BME280;68187;42.682;23.352;2024-03-22T07:54:46;95401.56;;;10.77;42.11
78835;BME280;68187;42.682;23.352;2024-03-22T07:57:13;95401.38;;;10.94;40.64
78835;BME280;68187;42.682;23.352;2024-03-22T07:59:39;95405.63;;;11.05;41.62
78835;BME280;68187;42.682;23.352;2024-03-22T08:02:09;95403.56;;;11.27;39.63
78835;BME280;68187;42.682;23.352;2024-03-22T08:04:35;95402.53;;;11.43;39.56
78835;BME280;68187;42.682;23.352;2024-03-22T08:07:04;95410.47;;;11.48;40.50
78835;BME280;68187;42.682;23.352;2024-03-22T08:09:29;95408.09;;;11.42;38.13
78835;BME280;68187;42.682;23.352;2024-03-22T08:11:56;95404.94;;;11.65;38.79
78835;BME280;68187;42.682;23.352;2024-03-22T08:14:23;95409.47;;;11.70;38.76
78835;BME280;68187;42.682;23.352;2024-03-22T08:16:49;95400.47;;;11.81;40.22
78835;BME280;68187;42.682;23.352;2024-03-22T08:19:15;95395.97;;;11.71;37.60
78835;BME280;68187;42.682;23.352;2024-03-22T08:21:42;95392.53;;;11.96;37.69
78835;BME280;68187;42.682;23.352;2024-03-22T08:24:10;95394.66;;;11.99;36.67
78835;BME280;68187;42.682;23.352;2024-03-22T08:26:36;95391.72;;;12.05;36.84
78835;BME280;68187;42.682;23.352;2024-03-22T08:29:02;95391.72;;;12.05;36.20
78835;BME280;68187;42.682;23.352;2024-03-22T08:31:29;95396.47;;;12.29;37.40
78835;BME280;68187;42.682;23.352;2024-03-22T08:33:55;95394.28;;;12.56;36.02
78835;BME280;68187;42.682;23.352;2024-03-22T08:36:22;95394.72;;;12.78;36.17
78835;BME280;68187;42.682;23.352;2024-03-22T08:38:49;95399.03;;;12.54;35.36
78835;BME280;68187;42.682;23.352;2024-03-22T08:41:17;95390.31;;;12.53;35.84
78835;BME280;68187;42.682;23.352;2024-03-22T08:43:43;95388.44;;;12.54;36.48
78835;BME280;68187;42.682;23.352;2024-03-22T08:46:11;95385.38;;;11.91;36.97
78835;BME280;68187;42.682;23.352;2024-03-22T08:48:36;95394.56;;;12.44;36.62
78835;BME280;68187;42.682;23.352;2024-03-22T08:51:03;95393.31;;;12.96;36.02
78835;BME280;68187;42.682;23.352;2024-03-22T08:53:29;95395.13;;;13.00;34.95
78835;BME280;68187;42.682;23.352;2024-03-22T08:55:56;95397.03;;;13.43;35.08
78835;BME280;68187;42.682;23.352;2024-03-22T08:58:24;95390.13;;;13.47;34.51
78835;BME280;68187;42.682;23.352;2024-03-22T09:00:50;95391.09;;;13.18;34.21
78835;BME280;68187;42.682;23.352;2024-03-22T09:03:16;95391.34;;;13.21;34.33
78835;BME280;68187;42.682;23.352;2024-03-22T09:05:43;95389.63;;;12.86;34.92
78835;BME280;68187;42.682;23.352;2024-03-22T09:08:09;95384.41;;;13.30;34.62
78835;BME280;68187;42.682;23.352;2024-03-22T09:10:36;95392.28;;;13.40;34.70
78835;BME280;68187;42.682;23.352;2024-03-22T09:13:02;95376.63;;;13.44;33.93
78835;BME280;68187;42.682;23.352;2024-03-22T09:15:30;95370.78;;;13.47;34.29
78835;BME280;68187;42.682;23.352;2024-03-22T09:17:56;95373.31;;;13.91;34.98
78835;BME280;68187;42.682;23.352;2024-03-22T09:20:23;95373.34;;;14.19;33.40
78835;BME280;68187;42.682;23.352;2024-03-22T09:22:49;95370.75;;;14.38;32.23
78835;BME280;68187;42.682;23.352;2024-03-22T09:25:16;95369.78;;;14.00;33.45
78835;BME280;68187;42.682;23.352;2024-03-22T09:27:42;95364.22;;;14.54;33.68
78835;BME280;68187;42.682;23.352;2024-03-22T09:30:09;95366.81;;;14.59;31.36
78835;BME280;68187;42.682;23.352;2024-03-22T09:32:37;95365.50;;;14.57;32.46
78835;BME280;68187;42.682;23.352;2024-03-22T09:35:04;95343.34;;;14.66;31.54
78835;BME280;68187;42.682;23.352;2024-03-22T09:37:31;95359.19;;;14.95;31.10
78835;BME280;68187;42.682;23.352;2024-03-22T09:39:58;95356.63;;;15.09;32.09
78835;BME280;68187;42.682;23.352;2024-03-22T09:42:26;95354.75;;;15.09;31.40
78835;BME280;68187;42.682;23.352;2024-03-22T09:44:54;95362.81;;;15.41;31.97
78835;BME280;68187;42.682;23.352;2024-03-22T09:47:21;95359.72;;;15.34;32.04
78835;BME280;68187;42.682;23.352;2024-03-22T09:49:48;95353.94;;;15.51;31.40
78835;BME280;68187;42.682;23.352;2024-03-22T09:52:16;95354.72;;;15.84;30.79
78835;BME280;68187;42.682;23.352;2024-03-22T09:54:44;95351.59;;;15.26;30.40
78835;BME280;68187;42.682;23.352;2024-03-22T09:57:14;95355.59;;;15.79;31.28
78835;BME280;68187;42.682;23.352;2024-03-22T09:59:41;95354.09;;;15.36;30.42
78835;BME280;68187;42.682;23.352;2024-03-22T10:02:10;95347.78;;;14.94;30.68
78835;BME280;68187;42.682;23.352;2024-03-22T10:04:36;95342.31;;;15.42;31.90
78835;BME280;68187;42.682;23.352;2024-03-22T10:07:04;95342.41;;;15.37;30.62
78835;BME280;68187;42.682;23.352;2024-03-22T10:09:32;95339.06;;;15.63;31.53
78835;BME280;68187;42.682;23.352;2024-03-22T10:11:59;95337.69;;;15.98;28.91
78835;BME280;68187;42.682;23.352;2024-03-22T10:14:25;95344.28;;;16.19;30.11
78835;BME280;68187;42.682;23.352;2024-03-22T10:16:52;95337.56;;;16.49;29.05
78835;BME280;68187;42.682;23.352;2024-03-22T10:19:19;95336.28;;;17.01;29.25
78835;BME280;68187;42.682;23.352;2024-03-22T10:21:47;95333.66;;;16.74;28.93
78835;BME280;68187;42.682;23.352;2024-03-22T10:24:14;95326.72;;;17.22;28.14
78835;BME280;68187;42.682;23.352;2024-03-22T10:26:41;95324.59;;;16.97;27.61
78835;BME280;68187;42.682;23.352;2024-03-22T10:29:07;95327.88;;;17.07;28.38
78835;BME280;68187;42.682;23.352;2024-03-22T10:31:35;95319.16;;;17.02;27.40
78835;BME280;68187;42.682;23.352;2024-03-22T10:34:02;95323.22;;;16.99;29.14
78835;BME280;68187;42.682;23.352;2024-03-22T10:36:31;95311.91;;;17.16;27.05
78835;BME280;68187;42.682;23.352;2024-03-22T10:38:58;95303.97;;;17.83;27.75
78835;BME280;68187;42.682;23.352;2024-03-22T10:41:26;95304.44;;;17.85;27.04
78835;BME280;68187;42.682;23.352;2024-03-22T10:43:52;95309.53;;;17.28;27.49
78835;BME280;68187;42.682;23.352;2024-03-22T10:46:20;95310.56;;;17.05;27.68
78835;BME280;68187;42.682;23.352;2024-03-22T10:48:47;95311.50;;;17.23;27.17
78835;BME280;68187;42.682;23.352;2024-03-22T10:51:15;95310.03;;;17.74;26.60
78835;BME280;68187;42.682;23.352;2024-03-22T10:53:42;95298.22;;;17.31;26.97
78835;BME280;68187;42.682;23.352;2024-03-22T10:56:10;95296.97;;;17.15;26.83
78835;BME280;68187;42.682;23.352;2024-03-22T10:58:41;95291.84;;;16.83;26.56
78835;BME280;68187;42.682;23.352;2024-03-22T11:01:21;95283.88;;;17.05;27.69
78835;BME280;68187;42.682;23.352;2024-03-22T11:03:47;95277.84;;;17.79;26.60
78835;BME280;68187;42.682;23.352;2024-03-22T11:06:18;95281.75;;;17.51;25.87
78835;BME280;68187;42.682;23.352;2024-03-22T11:08:49;95277.50;;;17.72;26.00
78835;BME280;68187;42.682;23.352;2024-03-22T11:11:18;95280.44;;;17.62;26.05
78835;BME280;68187;42.682;23.352;2024-03-22T11:13:46;95272.31;;;17.32;25.94
78835;BME280;68187;42.682;23.352;2024-03-22T11:16:14;95272.69;;;17.39;26.27
78835;BME280;68187;42.682;23.352;2024-03-22T11:18:40;95265.50;;;17.61;25.76
78835;BME280;68187;42.682;23.352;2024-03-22T11:21:07;95271.66;;;18.32;26.29
78835;BME280;68187;42.682;23.352;2024-03-22T11:23:34;95260.94;;;18.23;24.04
78835;BME280;68187;42.682;23.352;2024-03-22T11:26:04;95256.19;;;18.20;24.74
78835;BME280;68187;42.682;23.352;2024-03-22T11:28:32;95259.66;;;18.21;24.01
78835;BME280;68187;42.682;23.352;2024-03-22T11:31:00;95261.72;;;18.24;23.85
78835;BME280;68187;42.682;23.352;2024-03-22T11:33:26;95250.69;;;18.17;23.97
78835;BME280;68187;42.682;23.352;2024-03-22T11:35:53;95258.09;;;18.59;24.76
78835;BME280;68187;42.682;23.352;2024-03-22T11:38:19;95246.22;;;18.43;23.90
78835;BME280;68187;42.682;23.352;2024-03-22T11:40:46;95252.09;;;18.14;25.46
78835;BME280;68187;42.682;23.352;2024-03-22T11:43:14;95240.03;;;18.34;25.31
78835;BME280;68187;42.682;23.352;2024-03-22T11:45:45;95251.25;;;18.44;25.19
78835;BME280;68187;42.682;23.352;2024-03-22T11:48:13;95247.72;;;18.83;24.81
78835;BME280;68187;42.682;23.352;2024-03-22T11:50:40;95238.09;;;18.65;24.04
78835;BME280;68187;42.682;23.352;2024-03-22T11:53:06;95235.66;;;18.38;24.94
78835;BME280;68187;42.682;23.352;2024-03-22T11:55:35;95226.75;;;18.51;25.73
78835;BME280;68187;42.682;23.352;2024-03-22T11:58:03;95229.13;;;18.61;24.22
78835;BME280;68187;42.682;23.352;2024-03-22T12:00:31;95219.44;;;18.34;23.99
78835;BME280;68187;42.682;23.352;2024-03-22T12:02:57;95224.56;;;18.14;25.22
78835;BME280;68187;42.682;23.352;2024-03-22T12:05:25;95218.63;;;18.17;24.33
78835;BME280;68187;42.682;23.352;2024-03-22T12:07:51;95218.06;;;17.98;25.17
78835;BME280;68187;42.682;23.352;2024-03-22T12:10:18;95209.47;;;18.18;25.12
78835;BME280;68187;42.682;23.352;2024-03-22T12:12:44;95202.84;;;18.55;24.41
78835;BME280;68187;42.682;23.352;2024-03-22T12:15:11;95206.78;;;18.57;25.02
78835;BME280;68187;42.682;23.352;2024-03-22T12:17:37;95200.03;;;18.68;23.57
78835;BME280;68187;42.682;23.352;2024-03-22T12:20:06;95203.03;;;18.92;24.39
78835;BME280;68187;42.682;23.352;2024-03-22T12:22:35;95195.94;;;18.71;24.55
78835;BME280;68187;42.682;23.352;2024-03-22T12:25:02;95203.09;;;18.36;24.13
78835;BME280;68187;42.682;23.352;2024-03-22T12:27:37;95188.06;;;18.09;24.23
78835;BME280;68187;42.682;23.352;2024-03-22T12:30:05;95185.56;;;18.13;24.43
78835;BME280;68187;42.682;23.352;2024-03-22T12:32:31;95179.22;;;17.92;25.04
78835;BME280;68187;42.682;23.352;2024-03-22T12:34:58;95179.03;;;17.88;25.08
78835;BME280;68187;42.682;23.352;2024-03-22T12:37:24;95177.59;;;18.21;25.36
78835;BME280;68187;42.682;23.352;2024-03-22T12:39:53;95178.94;;;17.62;24.95
78835;BME280;68187;42.682;23.352;2024-03-22T12:42:19;95178.53;;;17.25;25.12
78835;BME280;68187;42.682;23.352;2024-03-22T12:44:46;95179.88;;;17.13;25.61
78835;BME280;68187;42.682;23.352;2024-03-22T12:47:12;95182.59;;;17.00;25.74
78835;BME280;68187;42.682;23.352;2024-03-22T12:49:38;95182.97;;;17.07;25.04
78835;BME280;68187;42.682;23.352;2024-03-22T12:52:05;95179.03;;;17.04;25.39
78835;BME280;68187;42.682;23.352;2024-03-22T12:54:32;95180.03;;;17.39;25.13